sensor_id;sensor_type;location;lat;lon;timestamp;P1;durP1;ratioP1;P2;durP2;ratioP2
66607;SDS011;53462;39.616;8.824;2023-03-01T00:01:01;3.53;;;1.77;;
66607;SDS011;53462;39.616;8.824;2023-03-01T00:03:35;3.40;;;1.85;;
66607;SDS011;53462;39.616;8.824;2023-03-01T00:06:01;3.45;;;2.10;;
66607;SDS011;53462;39.616;8.824;2023-03-01T00:08:28;4.00;;;1.83;;
66607;SDS011;53462;39.616;8.824;2023-03-01T00:11:05;5.50;;;2.17;;
66607;SDS011;53462;39.616;8.824;2023-03-01T00:13:42;3.60;;;2.03;;
66607;SDS011;53462;39.616;8.824;2023-03-01T00:16:11;4.40;;;2.10;;
66607;SDS011;53462;39.616;8.824;2023-03-01T00:18:39;4.90;;;2.30;;
66607;SDS011;53462;39.616;8.824;2023-03-01T00:21:05;5.53;;;2.15;;
66607;SDS011;53462;39.616;8.824;2023-03-01T00:23:33;3.67;;;2.28;;
66607;SDS011;53462;39.616;8.824;2023-03-01T00:26:00;6.35;;;2.70;;
66607;SDS011;53462;39.616;8.824;2023-03-01T00:28:26;5.95;;;2.33;;
66607;SDS011;53462;39.616;8.824;2023-03-01T00:30:52;6.80;;;2.80;;
66607;SDS011;53462;39.616;8.824;2023-03-01T00:33:18;4.55;;;2.95;;
66607;SDS011;53462;39.616;8.824;2023-03-01T00:35:44;6.03;;;2.90;;
66607;SDS011;53462;39.616;8.824;2023-03-01T00:38:10;6.15;;;3.53;;
66607;SDS011;53462;39.616;8.824;2023-03-01T00:40:36;6.05;;;3.22;;
66607;SDS011;53462;39.616;8.824;2023-03-01T00:43:02;11.80;;;4.97;;
66607;SDS011;53462;39.616;8.824;2023-03-01T00:45:29;8.35;;;4.00;;
66607;SDS011;53462;39.616;8.824;2023-03-01T00:47:57;6.60;;;2.83;;
66607;SDS011;53462;39.616;8.824;2023-03-01T00:50:23;5.55;;;2.90;;
66607;SDS011;53462;39.616;8.824;2023-03-01T00:52:55;6.00;;;3.00;;
66607;SDS011;53462;39.616;8.824;2023-03-01T00:55:22;4.28;;;1.60;;
66607;SDS011;53462;39.616;8.824;2023-03-01T00:57:48;4.40;;;2.45;;
66607;SDS011;53462;39.616;8.824;2023-03-01T01:00:14;5.63;;;2.50;;
66607;SDS011;53462;39.616;8.824;2023-03-01T01:02:41;2.28;;;1.25;;
66607;SDS011;53462;39.616;8.824;2023-03-01T01:05:07;7.05;;;2.78;;
66607;SDS011;53462;39.616;8.824;2023-03-01T01:07:33;3.00;;;1.27;;
66607;SDS011;53462;39.616;8.824;2023-03-01T01:09:59;4.35;;;2.13;;
66607;SDS011;53462;39.616;8.824;2023-03-01T01:12:25;5.95;;;3.47;;
66607;SDS011;53462;39.616;8.824;2023-03-01T01:14:51;2.95;;;1.25;;
66607;SDS011;53462;39.616;8.824;2023-03-01T01:17:17;1.73;;;0.90;;
66607;SDS011;53462;39.616;8.824;2023-03-01T01:19:43;1.35;;;0.80;;
66607;SDS011;53462;39.616;8.824;2023-03-01T01:22:09;2.67;;;1.40;;
66607;SDS011;53462;39.616;8.824;2023-03-01T01:24:34;1.30;;;0.80;;
66607;SDS011;53462;39.616;8.824;2023-03-01T01:27:01;3.75;;;1.77;;
66607;SDS011;53462;39.616;8.824;2023-03-01T01:29:26;2.70;;;1.40;;
66607;SDS011;53462;39.616;8.824;2023-03-01T01:31:53;2.65;;;1.60;;
66607;SDS011;53462;39.616;8.824;2023-03-01T01:34:19;1.40;;;1.30;;
66607;SDS011;53462;39.616;8.824;2023-03-01T01:36:50;3.15;;;1.10;;
66607;SDS011;53462;39.616;8.824;2023-03-01T01:39:19;3.58;;;1.05;;
66607;SDS011;53462;39.616;8.824;2023-03-01T01:41:45;1.75;;;0.90;;
66607;SDS011;53462;39.616;8.824;2023-03-01T01:44:22;5.65;;;1.50;;
66607;SDS011;53462;39.616;8.824;2023-03-01T01:46:52;1.35;;;1.00;;
66607;SDS011;53462;39.616;8.824;2023-03-01T01:52:11;3.38;;;1.00;;
66607;SDS011;53462;39.616;8.824;2023-03-01T01:54:39;2.67;;;0.80;;
66607;SDS011;53462;39.616;8.824;2023-03-01T01:57:13;4.15;;;0.80;;
66607;SDS011;53462;39.616;8.824;2023-03-01T01:59:44;2.03;;;0.90;;
66607;SDS011;53462;39.616;8.824;2023-03-01T02:02:13;1.02;;;0.80;;
66607;SDS011;53462;39.616;8.824;2023-03-01T02:04:39;3.50;;;0.80;;
66607;SDS011;53462;39.616;8.824;2023-03-01T02:07:11;3.42;;;0.85;;
66607;SDS011;53462;39.616;8.824;2023-03-01T02:09:48;2.63;;;0.90;;
66607;SDS011;53462;39.616;8.824;2023-03-01T02:12:18;1.48;;;0.80;;
66607;SDS011;53462;39.616;8.824;2023-03-01T02:14:46;1.25;;;0.80;;
66607;SDS011;53462;39.616;8.824;2023-03-01T02:17:12;2.15;;;0.90;;
66607;SDS011;53462;39.616;8.824;2023-03-01T02:22:43;1.92;;;0.80;;
66607;SDS011;53462;39.616;8.824;2023-03-01T02:30:41;1.27;;;0.85;;
66607;SDS011;53462;39.616;8.824;2023-03-01T02:33:27;3.90;;;0.80;;
66607;SDS011;53462;39.616;8.824;2023-03-01T02:36:00;1.20;;;0.70;;
66607;SDS011;53462;39.616;8.824;2023-03-01T02:38:32;3.08;;;0.80;;
66607;SDS011;53462;39.616;8.824;2023-03-01T02:40:58;0.70;;;0.60;;
66607;SDS011;53462;39.616;8.824;2023-03-01T02:43:27;1.58;;;0.80;;
66607;SDS011;53462;39.616;8.824;2023-03-01T02:46:08;1.85;;;0.70;;
66607;SDS011;53462;39.616;8.824;2023-03-01T02:48:44;1.58;;;0.82;;
66607;SDS011;53462;39.616;8.824;2023-03-01T02:54:18;1.00;;;0.60;;
66607;SDS011;53462;39.616;8.824;2023-03-01T02:56:55;1.38;;;0.70;;
66607;SDS011;53462;39.616;8.824;2023-03-01T02:59:24;1.55;;;0.80;;
66607;SDS011;53462;39.616;8.824;2023-03-01T03:01:54;1.63;;;0.60;;
66607;SDS011;53462;39.616;8.824;2023-03-01T03:04:20;1.77;;;0.65;;
66607;SDS011;53462;39.616;8.824;2023-03-01T03:06:48;0.80;;;0.60;;
66607;SDS011;53462;39.616;8.824;2023-03-01T03:09:16;0.95;;;0.50;;
66607;SDS011;53462;39.616;8.824;2023-03-01T03:11:44;2.17;;;1.30;;
66607;SDS011;53462;39.616;8.824;2023-03-01T03:14:10;4.13;;;1.30;;
66607;SDS011;53462;39.616;8.824;2023-03-01T03:16:47;2.72;;;1.50;;
66607;SDS011;53462;39.616;8.824;2023-03-01T03:19:15;2.75;;;1.40;;
66607;SDS011;53462;39.616;8.824;2023-03-01T03:21:42;3.97;;;1.73;;
66607;SDS011;53462;39.616;8.824;2023-03-01T03:24:08;3.38;;;1.60;;
66607;SDS011;53462;39.616;8.824;2023-03-01T03:26:34;3.33;;;1.80;;
66607;SDS011;53462;39.616;8.824;2023-03-01T03:29:00;3.35;;;1.33;;
66607;SDS011;53462;39.616;8.824;2023-03-01T03:31:26;2.05;;;1.05;;
66607;SDS011;53462;39.616;8.824;2023-03-01T03:33:52;1.80;;;1.17;;
66607;SDS011;53462;39.616;8.824;2023-03-01T03:36:20;1.95;;;0.90;;
66607;SDS011;53462;39.616;8.824;2023-03-01T03:38:48;3.00;;;1.10;;
66607;SDS011;53462;39.616;8.824;2023-03-01T03:41:14;2.25;;;1.00;;
66607;SDS011;53462;39.616;8.824;2023-03-01T03:43:41;1.40;;;1.10;;
66607;SDS011;53462;39.616;8.824;2023-03-01T03:46:09;1.45;;;0.93;;
66607;SDS011;53462;39.616;8.824;2023-03-01T03:48:37;2.47;;;1.08;;
66607;SDS011;53462;39.616;8.824;2023-03-01T03:51:09;1.85;;;1.10;;
66607;SDS011;53462;39.616;8.824;2023-03-01T03:53:37;1.45;;;0.90;;
66607;SDS011;53462;39.616;8.824;2023-03-01T03:56:03;3.20;;;1.20;;
66607;SDS011;53462;39.616;8.824;2023-03-01T03:58:29;3.90;;;1.20;;
66607;SDS011;53462;39.616;8.824;2023-03-01T04:00:56;2.20;;;1.60;;
66607;SDS011;53462;39.616;8.824;2023-03-01T04:03:23;3.85;;;2.10;;
66607;SDS011;53462;39.616;8.824;2023-03-01T04:05:51;3.92;;;2.13;;
66607;SDS011;53462;39.616;8.824;2023-03-01T04:08:21;3.35;;;2.20;;
66607;SDS011;53462;39.616;8.824;2023-03-01T04:10:49;5.28;;;2.30;;
66607;SDS011;53462;39.616;8.824;2023-03-01T04:13:17;4.78;;;2.60;;
66607;SDS011;53462;39.616;8.824;2023-03-01T04:15:51;3.80;;;2.03;;
66607;SDS011;53462;39.616;8.824;2023-03-01T04:18:19;6.10;;;2.70;;
66607;SDS011;53462;39.616;8.824;2023-03-01T04:20:46;5.03;;;2.70;;
66607;SDS011;53462;39.616;8.824;2023-03-01T04:23:14;3.63;;;2.42;;
66607;SDS011;53462;39.616;8.824;2023-03-01T04:25:55;4.88;;;3.00;;
66607;SDS011;53462;39.616;8.824;2023-03-01T04:28:23;4.90;;;3.00;;
66607;SDS011;53462;39.616;8.824;2023-03-01T04:30:54;4.90;;;2.80;;
66607;SDS011;53462;39.616;8.824;2023-03-01T04:33:21;7.03;;;2.78;;
66607;SDS011;53462;39.616;8.824;2023-03-01T04:35:47;4.43;;;2.42;;
66607;SDS011;53462;39.616;8.824;2023-03-01T04:38:17;3.65;;;2.42;;
66607;SDS011;53462;39.616;8.824;2023-03-01T04:40:44;3.47;;;2.63;;
66607;SDS011;53462;39.616;8.824;2023-03-01T04:43:11;4.35;;;2.90;;
66607;SDS011;53462;39.616;8.824;2023-03-01T04:45:40;4.47;;;2.95;;
66607;SDS011;53462;39.616;8.824;2023-03-01T04:48:06;7.45;;;2.78;;
66607;SDS011;53462;39.616;8.824;2023-03-01T04:50:32;4.47;;;2.67;;
66607;SDS011;53462;39.616;8.824;2023-03-01T04:52:58;4.78;;;2.50;;
66607;SDS011;53462;39.616;8.824;2023-03-01T04:55:25;4.07;;;2.58;;
66607;SDS011;53462;39.616;8.824;2023-03-01T04:57:52;3.35;;;2.47;;
66607;SDS011;53462;39.616;8.824;2023-03-01T05:00:19;4.47;;;2.40;;
66607;SDS011;53462;39.616;8.824;2023-03-01T05:02:49;4.95;;;2.67;;
66607;SDS011;53462;39.616;8.824;2023-03-01T05:05:24;6.93;;;3.88;;
66607;SDS011;53462;39.616;8.824;2023-03-01T05:07:52;9.18;;;4.03;;
66607;SDS011;53462;39.616;8.824;2023-03-01T05:10:19;6.43;;;3.25;;
66607;SDS011;53462;39.616;8.824;2023-03-01T05:12:45;7.18;;;3.40;;
66607;SDS011;53462;39.616;8.824;2023-03-01T05:15:11;3.30;;;1.88;;
66607;SDS011;53462;39.616;8.824;2023-03-01T05:17:37;30.70;;;14.00;;
66607;SDS011;53462;39.616;8.824;2023-03-01T05:20:03;28.23;;;11.63;;
66607;SDS011;53462;39.616;8.824;2023-03-01T05:22:34;19.42;;;9.73;;
66607;SDS011;53462;39.616;8.824;2023-03-01T05:25:00;11.35;;;4.55;;
66607;SDS011;53462;39.616;8.824;2023-03-01T05:27:27;13.90;;;7.78;;
66607;SDS011;53462;39.616;8.824;2023-03-01T05:29:52;3.50;;;2.00;;
66607;SDS011;53462;39.616;8.824;2023-03-01T05:32:18;3.08;;;1.17;;
66607;SDS011;53462;39.616;8.824;2023-03-01T05:34:45;3.83;;;1.90;;
66607;SDS011;53462;39.616;8.824;2023-03-01T05:37:12;3.63;;;1.88;;
66607;SDS011;53462;39.616;8.824;2023-03-01T05:39:38;3.80;;;1.83;;
66607;SDS011;53462;39.616;8.824;2023-03-01T05:42:04;4.97;;;1.90;;
66607;SDS011;53462;39.616;8.824;2023-03-01T05:44:30;3.38;;;2.22;;
66607;SDS011;53462;39.616;8.824;2023-03-01T05:46:56;5.50;;;3.08;;
66607;SDS011;53462;39.616;8.824;2023-03-01T05:49:23;6.40;;;3.97;;
66607;SDS011;53462;39.616;8.824;2023-03-01T05:51:50;7.68;;;4.55;;
66607;SDS011;53462;39.616;8.824;2023-03-01T05:54:18;5.43;;;3.33;;
66607;SDS011;53462;39.616;8.824;2023-03-01T05:56:45;3.50;;;2.35;;
66607;SDS011;53462;39.616;8.824;2023-03-01T05:59:10;5.30;;;3.25;;
66607;SDS011;53462;39.616;8.824;2023-03-01T06:01:37;7.50;;;3.30;;
66607;SDS011;53462;39.616;8.824;2023-03-01T06:04:03;7.07;;;3.08;;
66607;SDS011;53462;39.616;8.824;2023-03-01T06:06:30;9.15;;;5.60;;
66607;SDS011;53462;39.616;8.824;2023-03-01T06:08:59;12.93;;;7.70;;
66607;SDS011;53462;39.616;8.824;2023-03-01T06:11:25;15.45;;;6.90;;
66607;SDS011;53462;39.616;8.824;2023-03-01T06:13:51;6.85;;;3.10;;
66607;SDS011;53462;39.616;8.824;2023-03-01T06:16:17;6.28;;;2.88;;
66607;SDS011;53462;39.616;8.824;2023-03-01T06:18:43;5.70;;;3.03;;
66607;SDS011;53462;39.616;8.824;2023-03-01T06:21:09;5.35;;;2.70;;
66607;SDS011;53462;39.616;8.824;2023-03-01T06:23:35;4.95;;;2.90;;
66607;SDS011;53462;39.616;8.824;2023-03-01T06:26:04;5.65;;;3.20;;
66607;SDS011;53462;39.616;8.824;2023-03-01T06:28:32;9.02;;;4.53;;
66607;SDS011;53462;39.616;8.824;2023-03-01T06:30:58;6.53;;;3.65;;
66607;SDS011;53462;39.616;8.824;2023-03-01T06:33:24;4.88;;;3.50;;
66607;SDS011;53462;39.616;8.824;2023-03-01T06:35:50;4.75;;;2.53;;
66607;SDS011;53462;39.616;8.824;2023-03-01T06:38:16;5.80;;;2.90;;
66607;SDS011;53462;39.616;8.824;2023-03-01T06:40:44;6.88;;;3.00;;
66607;SDS011;53462;39.616;8.824;2023-03-01T06:43:16;7.65;;;3.90;;
66607;SDS011;53462;39.616;8.824;2023-03-01T06:45:42;13.65;;;5.97;;
66607;SDS011;53462;39.616;8.824;2023-03-01T06:48:08;8.13;;;4.07;;
66607;SDS011;53462;39.616;8.824;2023-03-01T06:50:34;22.05;;;10.48;;
66607;SDS011;53462;39.616;8.824;2023-03-01T06:53:00;24.08;;;11.85;;
66607;SDS011;53462;39.616;8.824;2023-03-01T06:55:27;13.07;;;7.60;;
66607;SDS011;53462;39.616;8.824;2023-03-01T06:57:54;15.98;;;8.57;;
66607;SDS011;53462;39.616;8.824;2023-03-01T07:00:21;13.45;;;7.60;;
66607;SDS011;53462;39.616;8.824;2023-03-01T07:02:48;17.40;;;9.85;;
66607;SDS011;53462;39.616;8.824;2023-03-01T07:05:13;11.23;;;6.13;;
66607;SDS011;53462;39.616;8.824;2023-03-01T07:07:39;6.78;;;3.85;;
66607;SDS011;53462;39.616;8.824;2023-03-01T07:10:05;3.50;;;1.92;;
66607;SDS011;53462;39.616;8.824;2023-03-01T07:12:32;2.47;;;1.40;;
66607;SDS011;53462;39.616;8.824;2023-03-01T07:14:58;3.78;;;1.77;;
66607;SDS011;53462;39.616;8.824;2023-03-01T07:17:24;6.65;;;3.08;;
66607;SDS011;53462;39.616;8.824;2023-03-01T07:19:50;13.68;;;7.88;;
66607;SDS011;53462;39.616;8.824;2023-03-01T07:22:16;10.90;;;6.70;;
66607;SDS011;53462;39.616;8.824;2023-03-01T07:24:42;7.43;;;2.95;;
66607;SDS011;53462;39.616;8.824;2023-03-01T07:27:08;4.50;;;2.05;;
66607;SDS011;53462;39.616;8.824;2023-03-01T07:29:35;3.75;;;2.03;;
66607;SDS011;53462;39.616;8.824;2023-03-01T07:32:04;4.18;;;1.80;;
66607;SDS011;53462;39.616;8.824;2023-03-01T07:34:30;2.45;;;1.60;;
66607;SDS011;53462;39.616;8.824;2023-03-01T07:36:56;11.00;;;5.45;;
66607;SDS011;53462;39.616;8.824;2023-03-01T07:39:22;6.90;;;2.40;;
66607;SDS011;53462;39.616;8.824;2023-03-01T07:41:48;13.30;;;9.00;;
66607;SDS011;53462;39.616;8.824;2023-03-01T07:44:20;5.95;;;3.72;;
66607;SDS011;53462;39.616;8.824;2023-03-01T07:46:45;16.92;;;10.43;;
66607;SDS011;53462;39.616;8.824;2023-03-01T07:49:11;5.97;;;3.05;;
66607;SDS011;53462;39.616;8.824;2023-03-01T07:51:37;9.23;;;5.57;;
66607;SDS011;53462;39.616;8.824;2023-03-01T07:54:03;5.30;;;2.50;;
66607;SDS011;53462;39.616;8.824;2023-03-01T07:56:29;7.72;;;4.03;;
66607;SDS011;53462;39.616;8.824;2023-03-01T07:58:55;3.13;;;2.00;;
66607;SDS011;53462;39.616;8.824;2023-03-01T08:01:21;3.85;;;2.30;;
66607;SDS011;53462;39.616;8.824;2023-03-01T08:03:47;3.38;;;2.35;;
66607;SDS011;53462;39.616;8.824;2023-03-01T08:06:14;4.18;;;2.08;;
66607;SDS011;53462;39.616;8.824;2023-03-01T08:08:45;3.22;;;2.30;;
66607;SDS011;53462;39.616;8.824;2023-03-01T08:11:12;4.00;;;2.05;;
66607;SDS011;53462;39.616;8.824;2023-03-01T08:13:39;4.88;;;2.30;;
66607;SDS011;53462;39.616;8.824;2023-03-01T08:16:06;3.70;;;2.40;;
66607;SDS011;53462;39.616;8.824;2023-03-01T08:18:33;7.00;;;3.00;;
66607;SDS011;53462;39.616;8.824;2023-03-01T08:21:06;4.88;;;2.30;;
66607;SDS011;53462;39.616;8.824;2023-03-01T08:23:33;4.75;;;2.10;;
66607;SDS011;53462;39.616;8.824;2023-03-01T08:26:18;5.07;;;3.00;;
66607;SDS011;53462;39.616;8.824;2023-03-01T08:28:46;4.82;;;3.20;;
66607;SDS011;53462;39.616;8.824;2023-03-01T08:31:17;3.63;;;2.53;;
66607;SDS011;53462;39.616;8.824;2023-03-01T08:33:45;5.60;;;2.70;;
66607;SDS011;53462;39.616;8.824;2023-03-01T08:36:17;4.80;;;2.92;;
66607;SDS011;53462;39.616;8.824;2023-03-01T08:38:43;6.65;;;4.63;;
66607;SDS011;53462;39.616;8.824;2023-03-01T08:41:09;6.55;;;4.50;;
66607;SDS011;53462;39.616;8.824;2023-03-01T08:43:35;5.80;;;4.30;;
66607;SDS011;53462;39.616;8.824;2023-03-01T08:46:01;6.80;;;4.05;;
66607;SDS011;53462;39.616;8.824;2023-03-01T08:48:27;4.65;;;2.95;;
66607;SDS011;53462;39.616;8.824;2023-03-01T08:50:53;6.65;;;3.83;;
66607;SDS011;53462;39.616;8.824;2023-03-01T08:53:19;4.75;;;3.28;;
66607;SDS011;53462;39.616;8.824;2023-03-01T08:55:45;7.72;;;2.70;;
66607;SDS011;53462;39.616;8.824;2023-03-01T08:58:11;4.80;;;3.03;;
66607;SDS011;53462;39.616;8.824;2023-03-01T09:00:37;4.05;;;3.13;;
66607;SDS011;53462;39.616;8.824;2023-03-01T09:03:03;5.72;;;3.95;;
66607;SDS011;53462;39.616;8.824;2023-03-01T09:05:33;11.27;;;7.70;;
66607;SDS011;53462;39.616;8.824;2023-03-01T09:07:59;8.25;;;3.60;;
66607;SDS011;53462;39.616;8.824;2023-03-01T09:10:25;5.03;;;3.90;;
66607;SDS011;53462;39.616;8.824;2023-03-01T09:12:51;6.15;;;4.03;;
66607;SDS011;53462;39.616;8.824;2023-03-01T09:15:17;5.57;;;3.25;;
66607;SDS011;53462;39.616;8.824;2023-03-01T09:17:46;4.28;;;3.28;;
66607;SDS011;53462;39.616;8.824;2023-03-01T09:20:12;3.92;;;2.70;;
66607;SDS011;53462;39.616;8.824;2023-03-01T09:22:38;5.10;;;4.25;;
66607;SDS011;53462;39.616;8.824;2023-03-01T09:25:03;4.85;;;2.72;;
66607;SDS011;53462;39.616;8.824;2023-03-01T09:27:30;3.88;;;2.72;;
66607;SDS011;53462;39.616;8.824;2023-03-01T09:29:56;4.35;;;2.58;;
66607;SDS011;53462;39.616;8.824;2023-03-01T09:32:21;3.80;;;2.60;;
66607;SDS011;53462;39.616;8.824;2023-03-01T09:34:47;4.38;;;3.38;;
66607;SDS011;53462;39.616;8.824;2023-03-01T09:37:32;4.10;;;2.53;;
66607;SDS011;53462;39.616;8.824;2023-03-01T09:39:59;3.85;;;2.38;;
66607;SDS011;53462;39.616;8.824;2023-03-01T09:42:25;3.90;;;2.30;;
66607;SDS011;53462;39.616;8.824;2023-03-01T09:45:15;5.32;;;2.72;;
66607;SDS011;53462;39.616;8.824;2023-03-01T09:48:05;3.58;;;1.60;;
66607;SDS011;53462;39.616;8.824;2023-03-01T09:50:42;2.95;;;1.98;;
66607;SDS011;53462;39.616;8.824;2023-03-01T09:53:16;2.70;;;1.60;;
66607;SDS011;53462;39.616;8.824;2023-03-01T10:01:33;1.80;;;1.35;;
66607;SDS011;53462;39.616;8.824;2023-03-01T10:04:28;3.05;;;1.40;;
66607;SDS011;53462;39.616;8.824;2023-03-01T10:07:02;2.92;;;1.58;;
66607;SDS011;53462;39.616;8.824;2023-03-01T10:09:35;2.10;;;1.50;;
66607;SDS011;53462;39.616;8.824;2023-03-01T10:12:04;2.58;;;1.80;;
66607;SDS011;53462;39.616;8.824;2023-03-01T10:14:40;6.43;;;4.25;;
66607;SDS011;53462;39.616;8.824;2023-03-01T10:20:28;4.95;;;2.20;;
66607;SDS011;53462;39.616;8.824;2023-03-01T10:23:02;2.13;;;1.63;;
66607;SDS011;53462;39.616;8.824;2023-03-01T10:25:36;3.40;;;1.80;;
66607;SDS011;53462;39.616;8.824;2023-03-01T10:31:11;5.70;;;4.03;;
66607;SDS011;53462;39.616;8.824;2023-03-01T10:33:40;6.13;;;4.75;;
66607;SDS011;53462;39.616;8.824;2023-03-01T10:36:07;6.47;;;4.07;;
66607;SDS011;53462;39.616;8.824;2023-03-01T10:38:54;5.25;;;3.78;;
66607;SDS011;53462;39.616;8.824;2023-03-01T10:41:22;7.25;;;3.67;;
66607;SDS011;53462;39.616;8.824;2023-03-01T10:44:00;6.63;;;3.75;;
66607;SDS011;53462;39.616;8.824;2023-03-01T10:46:37;10.23;;;6.55;;
66607;SDS011;53462;39.616;8.824;2023-03-01T10:49:07;5.75;;;4.22;;
66607;SDS011;53462;39.616;8.824;2023-03-01T10:51:48;6.20;;;3.78;;
66607;SDS011;53462;39.616;8.824;2023-03-01T10:54:22;7.28;;;3.67;;
66607;SDS011;53462;39.616;8.824;2023-03-01T10:56:53;4.80;;;2.17;;
66607;SDS011;53462;39.616;8.824;2023-03-01T10:59:34;3.72;;;1.67;;
66607;SDS011;53462;39.616;8.824;2023-03-01T11:05:02;6.97;;;2.88;;
66607;SDS011;53462;39.616;8.824;2023-03-01T11:07:28;1.70;;;1.38;;
66607;SDS011;53462;39.616;8.824;2023-03-01T11:09:54;4.28;;;1.67;;
66607;SDS011;53462;39.616;8.824;2023-03-01T11:12:21;2.22;;;1.60;;
66607;SDS011;53462;39.616;8.824;2023-03-01T11:14:50;5.07;;;1.60;;
66607;SDS011;53462;39.616;8.824;2023-03-01T11:17:28;3.92;;;2.10;;
66607;SDS011;53462;39.616;8.824;2023-03-01T11:22:53;3.20;;;1.80;;
66607;SDS011;53462;39.616;8.824;2023-03-01T11:25:25;3.30;;;1.70;;
66607;SDS011;53462;39.616;8.824;2023-03-01T11:27:53;7.43;;;1.60;;
66607;SDS011;53462;39.616;8.824;2023-03-01T11:30:37;5.25;;;1.70;;
66607;SDS011;53462;39.616;8.824;2023-03-01T11:35:42;4.28;;;2.55;;
66607;SDS011;53462;39.616;8.824;2023-03-01T11:38:35;6.82;;;2.13;;
66607;SDS011;53462;39.616;8.824;2023-03-01T11:51:41;8.38;;;2.70;;
66607;SDS011;53462;39.616;8.824;2023-03-01T11:54:18;11.25;;;3.80;;
66607;SDS011;53462;39.616;8.824;2023-03-01T11:57:00;13.70;;;5.90;;
66607;SDS011;53462;39.616;8.824;2023-03-01T12:10:27;6.68;;;3.97;;
66607;SDS011;53462;39.616;8.824;2023-03-01T12:15:50;7.25;;;2.63;;
66607;SDS011;53462;39.616;8.824;2023-03-01T12:35:11;4.55;;;2.60;;
66607;SDS011;53462;39.616;8.824;2023-03-01T12:37:46;4.13;;;2.00;;
66607;SDS011;53462;39.616;8.824;2023-03-01T12:51:26;6.82;;;4.43;;
66607;SDS011;53462;39.616;8.824;2023-03-01T12:53:55;4.68;;;1.40;;
66607;SDS011;53462;39.616;8.824;2023-03-01T12:56:25;1.95;;;1.20;;
66607;SDS011;53462;39.616;8.824;2023-03-01T12:59:02;4.18;;;2.20;;
66607;SDS011;53462;39.616;8.824;2023-03-01T13:01:35;1.42;;;1.15;;
66607;SDS011;53462;39.616;8.824;2023-03-01T13:04:22;5.57;;;3.42;;
66607;SDS011;53462;39.616;8.824;2023-03-01T13:06:58;1.73;;;1.02;;
66607;SDS011;53462;39.616;8.824;2023-03-01T13:17:58;3.65;;;2.13;;
66607;SDS011;53462;39.616;8.824;2023-03-01T13:20:45;2.85;;;1.88;;
66607;SDS011;53462;39.616;8.824;2023-03-01T13:31:55;3.90;;;1.65;;
66607;SDS011;53462;39.616;8.824;2023-03-01T13:33:57;3.67;;;1.25;;
66607;SDS011;53462;39.616;8.824;2023-03-01T13:46:46;1.42;;;0.90;;
66607;SDS011;53462;39.616;8.824;2023-03-01T13:49:14;1.40;;;0.80;;
66607;SDS011;53462;39.616;8.824;2023-03-01T13:51:46;2.25;;;1.40;;
66607;SDS011;53462;39.616;8.824;2023-03-01T13:54:13;3.00;;;1.20;;
66607;SDS011;53462;39.616;8.824;2023-03-01T13:56:41;1.63;;;1.10;;
66607;SDS011;53462;39.616;8.824;2023-03-01T13:59:16;1.40;;;0.90;;
66607;SDS011;53462;39.616;8.824;2023-03-01T14:01:44;2.95;;;1.00;;
66607;SDS011;53462;39.616;8.824;2023-03-01T14:04:26;5.93;;;1.90;;
66607;SDS011;53462;39.616;8.824;2023-03-01T14:09:58;2.10;;;1.17;;
66607;SDS011;53462;39.616;8.824;2023-03-01T14:15:19;1.00;;;0.90;;
66607;SDS011;53462;39.616;8.824;2023-03-01T14:20:32;2.25;;;1.40;;
66607;SDS011;53462;39.616;8.824;2023-03-01T14:23:09;3.03;;;1.70;;
66607;SDS011;53462;39.616;8.824;2023-03-01T14:25:38;3.42;;;1.90;;
66607;SDS011;53462;39.616;8.824;2023-03-01T14:30:46;1.90;;;1.07;;
66607;SDS011;53462;39.616;8.824;2023-03-01T14:33:33;4.70;;;1.13;;
66607;SDS011;53462;39.616;8.824;2023-03-01T14:36:10;1.55;;;1.20;;
66607;SDS011;53462;39.616;8.824;2023-03-01T14:38:41;2.90;;;1.30;;
66607;SDS011;53462;39.616;8.824;2023-03-01T14:41:10;2.40;;;1.00;;
66607;SDS011;53462;39.616;8.824;2023-03-01T14:43:45;2.72;;;1.33;;
66607;SDS011;53462;39.616;8.824;2023-03-01T14:46:20;4.10;;;2.20;;
66607;SDS011;53462;39.616;8.824;2023-03-01T14:48:51;2.58;;;1.67;;
66607;SDS011;53462;39.616;8.824;2023-03-01T14:51:19;2.60;;;1.70;;
66607;SDS011;53462;39.616;8.824;2023-03-01T14:53:45;2.97;;;1.50;;
66607;SDS011;53462;39.616;8.824;2023-03-01T14:56:13;4.60;;;1.98;;
66607;SDS011;53462;39.616;8.824;2023-03-01T14:58:41;6.00;;;2.80;;
66607;SDS011;53462;39.616;8.824;2023-03-01T15:01:07;3.88;;;1.83;;
66607;SDS011;53462;39.616;8.824;2023-03-01T15:03:40;7.57;;;5.10;;
66607;SDS011;53462;39.616;8.824;2023-03-01T15:09:36;3.80;;;1.95;;
66607;SDS011;53462;39.616;8.824;2023-03-01T15:12:23;4.40;;;1.40;;
66607;SDS011;53462;39.616;8.824;2023-03-01T15:14:55;1.92;;;0.73;;
66607;SDS011;53462;39.616;8.824;2023-03-01T15:17:32;2.78;;;0.68;;
66607;SDS011;53462;39.616;8.824;2023-03-01T15:20:00;2.25;;;0.70;;
66607;SDS011;53462;39.616;8.824;2023-03-01T15:22:29;1.95;;;0.70;;
66607;SDS011;53462;39.616;8.824;2023-03-01T15:24:55;1.02;;;0.50;;
66607;SDS011;53462;39.616;8.824;2023-03-01T15:27:23;1.17;;;0.50;;
66607;SDS011;53462;39.616;8.824;2023-03-01T15:29:52;0.55;;;0.40;;
66607;SDS011;53462;39.616;8.824;2023-03-01T15:34:57;0.57;;;0.40;;
66607;SDS011;53462;39.616;8.824;2023-03-01T15:43:36;4.18;;;0.40;;
66607;SDS011;53462;39.616;8.824;2023-03-01T15:46:03;0.93;;;0.40;;
66607;SDS011;53462;39.616;8.824;2023-03-01T15:48:29;2.22;;;0.40;;
66607;SDS011;53462;39.616;8.824;2023-03-01T15:50:56;1.80;;;0.40;;
66607;SDS011;53462;39.616;8.824;2023-03-01T15:53:24;0.30;;;0.30;;
66607;SDS011;53462;39.616;8.824;2023-03-01T15:55:53;1.50;;;0.50;;
66607;SDS011;53462;39.616;8.824;2023-03-01T15:58:20;0.57;;;0.30;;
66607;SDS011;53462;39.616;8.824;2023-03-01T16:00:49;0.65;;;0.55;;
66607;SDS011;53462;39.616;8.824;2023-03-01T16:03:21;2.55;;;0.70;;
66607;SDS011;53462;39.616;8.824;2023-03-01T16:05:48;2.50;;;0.70;;
66607;SDS011;53462;39.616;8.824;2023-03-01T16:08:15;1.73;;;0.60;;
66607;SDS011;53462;39.616;8.824;2023-03-01T16:10:42;1.58;;;0.82;;
66607;SDS011;53462;39.616;8.824;2023-03-01T16:13:11;2.35;;;1.30;;
66607;SDS011;53462;39.616;8.824;2023-03-01T16:15:38;1.65;;;0.70;;
66607;SDS011;53462;39.616;8.824;2023-03-01T16:18:05;1.92;;;0.50;;
66607;SDS011;53462;39.616;8.824;2023-03-01T16:20:33;1.95;;;0.50;;
66607;SDS011;53462;39.616;8.824;2023-03-01T16:23:00;0.77;;;0.68;;
66607;SDS011;53462;39.616;8.824;2023-03-01T16:25:28;0.52;;;0.43;;
66607;SDS011;53462;39.616;8.824;2023-03-01T16:27:55;0.63;;;0.40;;
66607;SDS011;53462;39.616;8.824;2023-03-01T16:30:23;0.35;;;0.32;;
66607;SDS011;53462;39.616;8.824;2023-03-01T16:32:50;0.98;;;0.50;;
66607;SDS011;53462;39.616;8.824;2023-03-01T16:35:17;1.92;;;0.60;;
66607;SDS011;53462;39.616;8.824;2023-03-01T16:37:44;6.60;;;2.83;;
66607;SDS011;53462;39.616;8.824;2023-03-01T16:42:48;2.17;;;1.50;;
66607;SDS011;53462;39.616;8.824;2023-03-01T16:45:15;2.30;;;1.85;;
66607;SDS011;53462;39.616;8.824;2023-03-01T16:47:42;3.90;;;3.15;;
66607;SDS011;53462;39.616;8.824;2023-03-01T16:50:08;3.83;;;2.13;;
66607;SDS011;53462;39.616;8.824;2023-03-01T16:52:35;3.13;;;2.15;;
66607;SDS011;53462;39.616;8.824;2023-03-01T16:55:05;2.17;;;1.50;;
66607;SDS011;53462;39.616;8.824;2023-03-01T16:57:36;1.85;;;1.33;;
66607;SDS011;53462;39.616;8.824;2023-03-01T17:00:03;2.33;;;1.52;;
66607;SDS011;53462;39.616;8.824;2023-03-01T17:02:32;3.72;;;2.30;;
66607;SDS011;53462;39.616;8.824;2023-03-01T17:04:59;2.20;;;1.70;;
66607;SDS011;53462;39.616;8.824;2023-03-01T17:07:25;2.40;;;2.08;;
66607;SDS011;53462;39.616;8.824;2023-03-01T17:09:51;2.97;;;2.05;;
66607;SDS011;53462;39.616;8.824;2023-03-01T17:12:17;2.25;;;1.60;;
66607;SDS011;53462;39.616;8.824;2023-03-01T17:14:43;4.57;;;3.00;;
66607;SDS011;53462;39.616;8.824;2023-03-01T17:17:09;1.20;;;1.10;;